Lequire, Oklahoma
Current Conditions -  °F | °C
As of 11:35 AM on Sunday 25 Jan 2015 (Local Time) from KGZL Reporting Station
Overcast Overcast  
Wind Chill: 55°   Ceiling: 5000
Heat Index: 55°   Visibility: 10mi
Dew Point: 25°   Wind: 22mph
Humidity: 31%   Direction: 320°NW
Pressure: 29.9"   Gusts: 35mph
Location:  35.1°N, 95.11°W
Report Text: KGZL 251735Z AUTO 32019G30KT 10SM BKN050 OVC060 13/M04 A2990 RMK AO2
Loading
Personal Weather Stations






























Interactive Weather Map New forecast layout! Learn more

10-Day Weather Forecast

Advertisements
Track Severe Weather on mobile